LEGRLEMG

Guest
Details From LEGR - Granada
To LEMG - Malaga
Flight Number -
Tags Generated
Created
Modified
Stats Distance 46 nm / 85 km
Max Altitude 0 ft / 0 m
Waypoints 2
Social Downloads 3
Likes 0
Share VATSIM

Download

Looking for another format? Having issues loading an existing format? Contact us
Advertisement - Login to hide

Notes

Generated

Route

LEGR LEMG

ID Type Via Altitude Latitude Longitude Leg Dist Tot Dist Heading (true) Name
O LEGR APT - 0 ft / 0 m 37.18861˚ -3.79372˚ - 0 nm - -
O LEMG APT - 0 ft / 0 m 36.68453˚ -4.51259˚ 45 nm 45 nm 229° / 229° -

Altitude Profile

Advertisement - Login to hide

LEGR

Details ICAO LEGR (GRX)
Name Granada
Region Spain
Timezone Europe/Madrid (UTC+2.0)
Stats Elevation 1,859 ft / 567 m (AMSL)
Location 37.188731° -3.777359°
Runways 1
Magnetic Variation 0.619° W

METAR

LEGR 181500Z VRB05KT 9999 FEW100 37/09 Q1017

Decode

TAF

TAF LEGR 181400Z 1815/1915 17011KT CAVOK TX37/1815Z TN17/1905Z BECMG 1820/1823 VRB03KT BECMG 1908/1911 15010KT

Decode

Departure Runways

ID Width Length Bearing (true) Bearing (mag) Surface Threshold Offset Overrun Length
09 147 ft / 45 m 9,511 ft / 2,899 m 89.46° 90.08° Asphalt 0 ft / 0 m 0 ft / 0 m
27 147 ft / 45 m 9,511 ft / 2,899 m 269.48° 270.10° Asphalt 0 ft / 0 m 0 ft / 0 m

LEMG

Details ICAO LEMG (AGP)
Name Malaga
Region Spain
Timezone Europe/Madrid (UTC+2.0)
Stats Elevation 52 ft / 16 m (AMSL)
Location 36.679780° -4.495899°
Runways 2
Magnetic Variation 0.819° W

METAR

LEMG 181500Z 13008KT 090V180 9999 FEW050 27/13 Q1018 NOSIG

Decode

TAF

TAF LEMG 181100Z 1812/1912 13010KT CAVOK TX29/1813Z TN19/1905Z BECMG 1819/1822 VRB03KT BECMG 1900/1903 29006KT BECMG 1907/1910 13008KT

Decode

Destination Runways

ID Width Length Bearing (true) Bearing (mag) Surface Threshold Offset Overrun Length
12 148 ft / 45 m 10,057 ft / 3,065 m 117.76° 118.58° Asphalt 0 ft / 0 m 650 ft / 198 m
13 148 ft / 45 m 10,509 ft / 3,203 m 131.69° 132.51° Asphalt 0 ft / 0 m 246 ft / 75 m
30 148 ft / 45 m 10,057 ft / 3,065 m 297.78° 298.60° Asphalt 1,115 ft / 340 m 466 ft / 142 m
31 148 ft / 45 m 10,509 ft / 3,203 m 311.70° 312.52° Asphalt 0 ft / 0 m 246 ft / 75 m

Approach Navaids

Runway Type Ident Frequency Range Bearing (true) Bearing (mag) Slope Elevation
12 Localiser IMG 110.55 MHz 15 nm / 28 km 117.70° 118.52° - 52 ft / 16 m (AMSL)
12 Glidescope IMG 110.55 MHz 8 nm / 15 km 0.00° 0.82° 3.00° 52 ft / 16 m (AMSL)
12 DME IMG 110.55 MHz 18 nm / 33 km - - - 52 ft / 16 m (AMSL)
13 Localiser GMM 109.50 MHz 18 nm / 33 km 131.70° 132.52° - 52 ft / 16 m (AMSL)
13 Glidescope GMM 109.50 MHz 10 nm / 19 km 131.69° 132.51° 3.20° 69 ft / 21 m (AMSL)
13 DME GMM 109.50 MHz 18 nm / 33 km - - - 69 ft / 21 m (AMSL)
31 Localiser GAA 109.90 MHz 18 nm / 33 km 311.68° 312.50° - 52 ft / 16 m (AMSL)
31 Glidescope GAA 109.90 MHz 10 nm / 19 km 311.69° 312.51° 3.00° 56 ft / 17 m (AMSL)
31 DME GAA 109.90 MHz 18 nm / 33 km - - - 56 ft / 17 m (AMSL)

Popular Alternatives